MRPV - Tobias Bolaños Palma Intl.
MRPV 050000Z 10008KT 9999 SCT030 23/17 A3000 NOSIG
Observed:
Wind:
visibility:
Flight Rules:
Cloud Levels:
Temperature:
Humidity:
Pressure: